Time;durP1;ratioP1;P1;durP2;ratioP2;P2;SDS_P1;SDS_P2;PMS_P1;PMS_P2;Temp;Humidity;BMP_temperature;BMP_pressure;BME280_temperature;BME280_humidity;BME280_pressure;Samples;Min_cycle;Max_cycle;Signal;HPM_P1;HPM_P2
2020/12/20 00:01:56;;;;;;;9.63;6.28;;;8.80;99.90;;;;;;5062348;28;20024;-80
2020/12/20 00:04:22;;;;;;;9.50;5.53;;;8.80;99.90;;;;;;5085027;28;20030;-81
2020/12/20 00:06:47;;;;;;;8.73;5.53;;;8.80;99.90;;;;;;5082505;28;20028;-81
2020/12/20 00:09:21;;;;;;;7.28;5.03;;;8.80;99.90;;;;;;5056304;28;20025;-81
2020/12/20 00:11:48;;;;;;;6.57;4.88;;;8.80;99.90;;;;;;5062346;28;20055;-81
2020/12/20 00:14:34;;;;;;;11.30;5.78;;;8.80;99.90;;;;;;5065463;28;20107;-81
2020/12/20 00:17:11;;;;;;;10.60;4.82;;;8.80;99.90;;;;;;5063735;28;20025;-81
2020/12/20 00:19:37;;;;;;;10.70;5.28;;;8.90;99.90;;;;;;5082136;28;20035;-81
2020/12/20 00:22:12;;;;;;;10.15;5.40;;;8.80;99.90;;;;;;5066268;28;20043;-80
2020/12/20 00:24:39;;;;;;;13.77;5.63;;;8.90;99.90;;;;;;5056197;28;20024;-80
2020/12/20 00:27:06;;;;;;;9.63;4.65;;;8.90;99.90;;;;;;5054873;28;20036;-81
2020/12/20 00:29:33;;;;;;;8.13;5.28;;;8.90;99.90;;;;;;5063427;28;20025;-81
2020/12/20 00:32:03;;;;;;;8.65;5.07;;;8.90;99.90;;;;;;5080238;28;20065;-81
2020/12/20 00:34:29;;;;;;;7.97;4.15;;;8.90;99.90;;;;;;5067502;28;20496;-81
2020/12/20 00:36:54;;;;;;;10.38;5.07;;;8.90;99.90;;;;;;5068242;28;20024;-81
2020/12/20 00:39:21;;;;;;;9.30;5.38;;;8.90;99.90;;;;;;5066280;28;20020;-81
2020/12/20 00:42:01;;;;;;;8.82;4.57;;;8.90;99.90;;;;;;5067416;28;20024;-81
2020/12/20 00:44:28;;;;;;;9.30;5.07;;;8.90;99.90;;;;;;5067000;28;20054;-81
2020/12/20 00:46:55;;;;;;;9.15;5.25;;;8.90;99.90;;;;;;5068302;28;20028;-81
2020/12/20 00:49:25;;;;;;;10.82;5.22;;;8.90;99.90;;;;;;5085824;28;20032;-80
2020/12/20 00:51:51;;;;;;;10.80;5.32;;;8.90;99.90;;;;;;5083004;28;20555;-80
2020/12/20 00:54:17;;;;;;;9.40;4.30;;;8.90;99.90;;;;;;5065982;28;20028;-80
2020/12/20 00:56:43;;;;;;;9.07;4.53;;;9.00;99.90;;;;;;5064016;28;20357;-81
2020/12/20 00:59:08;;;;;;;10.15;4.55;;;8.90;99.90;;;;;;5065364;28;20035;-81
2020/12/20 01:01:34;;;;;;;8.02;5.15;;;8.90;99.90;;;;;;5083865;28;20032;-81
2020/12/20 01:03:59;;;;;;;8.52;5.00;;;8.90;99.90;;;;;;5083738;28;20150;-80
2020/12/20 01:06:25;;;;;;;10.93;4.18;;;8.90;99.90;;;;;;5086440;28;20057;-80
2020/12/20 01:08:51;;;;;;;8.55;4.45;;;8.90;99.90;;;;;;5066312;28;20032;-81
2020/12/20 01:11:18;;;;;;;10.57;4.57;;;8.80;99.90;;;;;;5059299;28;20368;-80
2020/12/20 01:13:45;;;;;;;11.07;5.22;;;8.80;99.90;;;;;;5085777;28;20537;-81
2020/12/20 01:16:15;;;;;;;11.27;4.45;;;8.90;99.90;;;;;;5060202;28;20480;-80
2020/12/20 01:18:41;;;;;;;8.40;4.35;;;8.80;99.90;;;;;;5082291;28;20040;-81
2020/12/20 01:21:06;;;;;;;8.98;4.13;;;8.80;99.90;;;;;;5066700;28;20020;-81
2020/12/20 01:23:32;;;;;;;9.50;3.83;;;8.80;99.90;;;;;;5067213;28;20020;-81
2020/12/20 01:25:59;;;;;;;12.68;6.03;;;8.80;99.90;;;;;;5065291;28;20023;-80
2020/12/20 01:28:25;;;;;;;7.10;3.72;;;8.90;99.90;;;;;;5083413;28;20082;-81
2020/12/20 01:30:52;;;;;;;7.82;4.03;;;8.80;99.90;;;;;;5065757;28;20020;-81
2020/12/20 01:33:18;;;;;;;9.63;4.35;;;8.90;99.90;;;;;;5085261;28;20104;-81
2020/12/20 01:35:43;;;;;;;13.23;5.82;;;8.90;99.90;;;;;;5085986;28;20103;-81
2020/12/20 01:38:09;;;;;;;6.18;4.18;;;8.90;99.90;;;;;;5065940;28;20470;-81
2020/12/20 01:40:34;;;;;;;8.13;4.13;;;8.90;99.90;;;;;;5056147;28;20025;-81
2020/12/20 01:43:00;;;;;;;8.60;3.50;;;8.90;99.90;;;;;;5065402;28;20074;-81
2020/12/20 01:45:25;;;;;;;9.82;4.00;;;8.90;99.90;;;;;;5065670;28;20024;-81
2020/12/20 01:47:51;;;;;;;11.25;3.97;;;9.00;99.90;;;;;;5084048;28;20020;-81
2020/12/20 01:50:17;;;;;;;8.82;4.03;;;8.90;99.90;;;;;;5058409;28;20395;-81
2020/12/20 01:52:42;;;;;;;9.50;3.70;;;8.90;99.90;;;;;;5085529;28;20099;-81
2020/12/20 01:55:08;;;;;;;5.70;3.50;;;9.00;99.90;;;;;;5065026;28;20531;-81
2020/12/20 01:57:34;;;;;;;10.73;4.07;;;8.90;99.90;;;;;;5058441;28;20020;-80
2020/12/20 02:00:00;;;;;;;10.20;3.30;;;8.90;99.90;;;;;;5083802;28;20043;-81
2020/12/20 02:02:25;;;;;;;7.00;3.28;;;8.90;99.90;;;;;;5083850;28;20031;-81
2020/12/20 02:04:51;;;;;;;9.70;3.35;;;8.90;99.90;;;;;;5085934;28;20024;-80
2020/12/20 02:07:16;;;;;;;10.40;4.20;;;8.90;99.90;;;;;;5067177;28;20439;-81
2020/12/20 02:09:45;;;;;;;8.27;3.53;;;9.00;99.90;;;;;;5082174;28;20476;-81
2020/12/20 02:12:11;;;;;;;10.20;3.35;;;9.00;99.90;;;;;;5063844;28;20047;-80
2020/12/20 02:14:36;;;;;;;8.25;3.50;;;9.00;99.90;;;;;;5082976;28;20448;-81
2020/12/20 02:17:05;;;;;;;6.03;3.13;;;9.00;99.90;;;;;;5065688;28;20025;-80
2020/12/20 02:19:31;;;;;;;9.07;3.38;;;9.00;99.90;;;;;;5065154;28;20035;-81
2020/12/20 02:21:56;;;;;;;8.93;3.17;;;9.00;99.90;;;;;;5085948;28;20028;-81
2020/12/20 02:24:22;;;;;;;9.05;3.50;;;9.00;99.90;;;;;;5085276;28;20043;-81
2020/12/20 02:26:48;;;;;;;11.05;5.50;;;9.00;99.90;;;;;;5081627;28;20016;-80
2020/12/20 02:29:13;;;;;;;11.35;3.83;;;9.00;99.90;;;;;;5082206;28;20464;-81
2020/12/20 02:31:39;;;;;;;9.00;4.20;;;9.00;99.90;;;;;;5057891;28;20064;-81
2020/12/20 02:34:06;;;;;;;7.43;3.72;;;9.00;99.90;;;;;;5056276;28;20384;-81
2020/12/20 02:36:31;;;;;;;10.90;3.65;;;9.00;99.90;;;;;;5083154;28;20392;-81
2020/12/20 02:38:57;;;;;;;6.97;3.38;;;9.00;99.90;;;;;;5065528;28;20016;-81
2020/12/20 02:41:23;;;;;;;9.35;3.47;;;9.00;99.90;;;;;;5064340;28;20036;-81
2020/12/20 02:43:49;;;;;;;9.70;3.65;;;9.00;99.90;;;;;;5080817;28;20025;-81
2020/12/20 02:46:16;;;;;;;9.55;3.40;;;9.00;99.90;;;;;;5082877;28;20047;-81
2020/12/20 02:48:42;;;;;;;7.82;3.75;;;9.00;99.90;;;;;;5065231;28;20065;-81
2020/12/20 02:51:08;;;;;;;6.15;3.17;;;8.90;99.90;;;;;;5083710;28;20054;-81
2020/12/20 02:53:33;;;;;;;9.38;4.25;;;8.90;99.90;;;;;;5063265;28;20024;-81
2020/12/20 02:55:59;;;;;;;8.27;3.50;;;8.90;99.90;;;;;;5063537;28;20016;-81
2020/12/20 02:58:24;;;;;;;6.78;3.00;;;8.90;99.90;;;;;;5055867;28;20020;-81
2020/12/20 03:00:50;;;;;;;6.78;3.38;;;8.90;99.90;;;;;;5064536;28;20099;-81
2020/12/20 03:03:15;;;;;;;8.07;3.35;;;8.90;99.90;;;;;;5066453;28;20039;-81
2020/12/20 03:05:41;;;;;;;5.47;3.65;;;8.90;99.90;;;;;;5083175;28;20030;-81
2020/12/20 03:08:06;;;;;;;8.77;3.75;;;8.90;99.90;;;;;;5054517;28;20016;-82
2020/12/20 03:10:32;;;;;;;10.40;4.13;;;8.90;99.90;;;;;;5080896;28;20050;-81
2020/12/20 03:12:58;;;;;;;9.65;3.97;;;8.90;99.90;;;;;;5084042;28;20087;-81
2020/12/20 03:15:23;;;;;;;7.55;3.13;;;8.90;99.90;;;;;;5055219;28;20016;-81
2020/12/20 03:17:49;;;;;;;9.43;2.85;;;8.90;99.90;;;;;;5081482;28;20477;-81
2020/12/20 03:20:14;;;;;;;8.55;3.15;;;8.90;99.90;;;;;;5065381;28;20016;-81
2020/12/20 03:22:40;;;;;;;9.52;3.75;;;8.90;99.90;;;;;;5082990;28;20139;-81
2020/12/20 03:25:05;;;;;;;4.95;2.75;;;8.90;99.90;;;;;;5065160;28;20168;-81
2020/12/20 03:27:31;;;;;;;10.43;3.50;;;8.90;99.90;;;;;;5065406;28;20036;-81
2020/12/20 03:29:57;;;;;;;12.82;3.40;;;8.90;99.90;;;;;;5081187;28;20487;-81
2020/12/20 03:32:22;;;;;;;7.88;3.65;;;8.80;99.90;;;;;;5063306;28;20101;-81
2020/12/20 03:34:48;;;;;;;7.50;2.88;;;8.90;99.90;;;;;;5082914;28;20069;-81
2020/12/20 03:37:14;;;;;;;7.68;2.70;;;8.80;99.90;;;;;;5065154;28;20441;-81
2020/12/20 03:39:39;;;;;;;9.18;3.58;;;8.80;99.90;;;;;;5082785;28;20027;-81
2020/12/20 03:42:05;;;;;;;10.77;3.40;;;8.80;99.90;;;;;;5054242;28;20025;-81
2020/12/20 03:44:31;;;;;;;9.65;3.80;;;8.90;99.90;;;;;;5081255;28;20021;-81
2020/12/20 03:46:56;;;;;;;9.07;3.75;;;8.90;99.90;;;;;;5080388;28;20102;-81
2020/12/20 03:49:22;;;;;;;9.55;3.10;;;8.90;99.90;;;;;;5082567;28;20068;-81
2020/12/20 03:51:48;;;;;;;10.05;3.45;;;8.90;99.90;;;;;;5083732;28;20036;-81
2020/12/20 03:54:13;;;;;;;9.68;3.42;;;8.90;99.90;;;;;;5081389;28;20016;-81
2020/12/20 03:56:39;;;;;;;6.72;2.63;;;8.90;99.90;;;;;;5056250;28;20493;-81
2020/12/20 03:59:04;;;;;;;7.03;2.92;;;8.90;99.90;;;;;;5081123;28;20035;-81
2020/12/20 04:01:30;;;;;;;7.20;3.33;;;8.90;99.90;;;;;;5055498;28;20123;-81
2020/12/20 04:03:55;;;;;;;8.50;3.25;;;8.90;99.90;;;;;;5064053;28;20031;-81
2020/12/20 04:06:21;;;;;;;10.48;4.05;;;8.90;99.90;;;;;;5082606;28;20035;-81
2020/12/20 04:08:47;;;;;;;8.05;3.03;;;8.90;99.90;;;;;;5086385;28;20020;-81
2020/12/20 04:11:12;;;;;;;7.25;2.97;;;8.90;99.90;;;;;;5085527;28;20103;-81
2020/12/20 04:13:38;;;;;;;8.38;3.42;;;8.90;99.90;;;;;;5060163;28;20483;-81
2020/12/20 04:16:07;;;;;;;9.82;3.03;;;8.90;99.90;;;;;;5060749;28;20436;-82
2020/12/20 04:18:34;;;;;;;7.53;3.05;;;8.90;99.90;;;;;;5060007;28;20095;-81
2020/12/20 04:20:59;;;;;;;11.00;3.33;;;8.90;99.90;;;;;;5069058;28;20020;-82
2020/12/20 04:23:25;;;;;;;9.75;4.90;;;8.90;99.90;;;;;;5086963;28;20047;-81
2020/12/20 04:25:51;;;;;;;7.90;3.67;;;8.90;99.90;;;;;;5067520;28;20016;-81
2020/12/20 04:28:16;;;;;;;7.32;3.63;;;8.90;99.90;;;;;;5084214;28;20099;-81
2020/12/20 04:30:42;;;;;;;6.63;3.15;;;8.90;99.90;;;;;;5085205;28;20073;-82
2020/12/20 04:33:07;;;;;;;5.68;2.95;;;8.90;99.90;;;;;;5066198;28;20070;-81
2020/12/20 04:35:33;;;;;;;9.60;3.47;;;8.90;99.90;;;;;;5086663;28;20027;-81
2020/12/20 04:37:59;;;;;;;8.65;2.95;;;8.90;99.90;;;;;;5086386;28;20471;-82
2020/12/20 04:40:25;;;;;;;11.27;4.00;;;8.90;99.90;;;;;;5086746;28;20514;-82
2020/12/20 04:42:51;;;;;;;9.45;3.03;;;8.90;99.90;;;;;;5067060;28;20032;-82
2020/12/20 04:45:17;;;;;;;7.18;3.00;;;8.90;99.90;;;;;;5059748;28;20127;-81
2020/12/20 04:47:48;;;;;;;10.75;3.40;;;8.90;99.90;;;;;;5068192;28;20024;-81
2020/12/20 04:50:14;;;;;;;12.50;3.10;;;8.90;99.90;;;;;;5068280;28;20040;-82
2020/12/20 04:52:43;;;;;;;7.57;3.10;;;9.00;99.90;;;;;;5086471;28;20093;-81
2020/12/20 04:55:08;;;;;;;8.73;3.40;;;8.90;99.90;;;;;;5065315;28;20046;-81
2020/12/20 04:57:34;;;;;;;6.68;3.25;;;8.90;99.90;;;;;;5059915;28;20024;-81
2020/12/20 05:00:05;;;;;;;8.93;3.40;;;8.90;99.90;;;;;;5065502;28;20025;-82
2020/12/20 05:02:31;;;;;;;7.97;3.22;;;8.90;99.90;;;;;;5058649;28;20024;-81
2020/12/20 05:04:57;;;;;;;6.22;2.85;;;8.90;99.90;;;;;;5085921;28;20043;-82
2020/12/20 05:07:22;;;;;;;10.57;2.92;;;8.90;99.90;;;;;;5067624;28;20476;-81
2020/12/20 05:09:49;;;;;;;8.73;3.25;;;8.90;99.90;;;;;;5056704;28;20036;-81
2020/12/20 05:12:25;;;;;;;7.30;2.80;;;8.90;99.90;;;;;;5064958;28;20447;-81
2020/12/20 05:14:50;;;;;;;7.85;3.33;;;8.90;99.90;;;;;;5065836;28;20019;-81
2020/12/20 05:17:17;;;;;;;7.53;3.08;;;8.90;99.90;;;;;;5066399;28;20020;-81
2020/12/20 05:19:43;;;;;;;12.05;2.88;;;8.90;99.90;;;;;;5056387;28;20031;-81
2020/12/20 05:22:15;;;;;;;11.48;3.33;;;8.90;99.90;;;;;;5084006;28;20024;-81
2020/12/20 05:24:41;;;;;;;8.00;2.83;;;8.90;99.90;;;;;;5061547;28;20064;-81
2020/12/20 05:27:19;;;;;;;9.13;3.10;;;8.90;99.90;;;;;;5057686;28;20023;-81
2020/12/20 05:29:49;;;;;;;9.82;3.45;;;8.90;99.90;;;;;;5085203;28;20050;-81
2020/12/20 05:32:25;;;;;;;7.85;3.70;;;8.90;99.90;;;;;;5056262;28;20480;-81
2020/12/20 05:35:01;;;;;;;8.15;2.95;;;8.90;99.90;;;;;;5081946;28;20026;-81
2020/12/20 05:37:28;;;;;;;10.35;3.00;;;8.90;99.90;;;;;;5068819;28;20020;-81
2020/12/20 05:39:55;;;;;;;8.90;2.72;;;8.90;99.90;;;;;;5083840;28;20020;-81
2020/12/20 05:42:22;;;;;;;9.75;3.00;;;8.90;99.90;;;;;;5084823;28;20031;-81
2020/12/20 05:44:48;;;;;;;10.57;2.58;;;8.90;99.90;;;;;;5065725;28;20077;-81
2020/12/20 05:47:14;;;;;;;5.32;3.17;;;8.90;99.90;;;;;;5084263;28;20027;-81
2020/12/20 05:49:39;;;;;;;11.65;2.78;;;8.90;99.90;;;;;;5083843;28;20157;-81
2020/12/20 05:52:10;;;;;;;9.38;2.83;;;8.90;99.90;;;;;;5067033;28;20016;-81
2020/12/20 05:54:40;;;;;;;7.38;2.80;;;8.90;99.90;;;;;;5082520;28;20537;-81
2020/12/20 05:57:13;;;;;;;7.10;2.60;;;8.90;99.90;;;;;;5065910;28;20070;-81
2020/12/20 05:59:41;;;;;;;6.40;2.40;;;8.90;99.90;;;;;;5063601;28;20031;-81
2020/12/20 06:02:07;;;;;;;16.00;3.60;;;8.90;99.90;;;;;;5066693;28;20028;-81
2020/12/20 06:04:34;;;;;;;8.45;2.83;;;8.90;99.90;;;;;;5066412;28;20033;-81
2020/12/20 06:06:59;;;;;;;7.72;2.60;;;8.90;99.90;;;;;;5067008;28;20020;-81
2020/12/20 06:09:26;;;;;;;9.55;2.83;;;8.90;99.90;;;;;;5067206;28;20154;-82
2020/12/20 06:11:59;;;;;;;11.52;2.90;;;8.90;99.90;;;;;;5065003;28;20020;-82
2020/12/20 06:14:27;;;;;;;6.60;2.97;;;8.90;99.90;;;;;;5066187;28;20016;-81
2020/12/20 06:17:19;;;;;;;13.98;2.75;;;8.90;99.90;;;;;;5057583;28;20027;-82
2020/12/20 06:19:55;;;;;;;11.30;2.47;;;8.90;99.90;;;;;;5081831;28;20024;-81
2020/12/20 06:22:31;;;;;;;9.30;2.42;;;8.80;99.90;;;;;;5065767;28;20429;-81
2020/12/20 06:25:03;;;;;;;11.85;2.92;;;8.80;99.90;;;;;;5057851;28;20073;-81
2020/12/20 06:27:30;;;;;;;9.00;2.88;;;8.80;99.90;;;;;;5083548;28;20019;-81
2020/12/20 06:29:57;;;;;;;8.82;2.70;;;8.80;99.90;;;;;;5081829;28;20122;-81
2020/12/20 06:32:45;;;;;;;9.55;3.17;;;8.80;99.90;;;;;;5054572;28;20028;-81
2020/12/20 06:35:18;;;;;;;8.38;2.63;;;8.80;99.90;;;;;;5065305;28;20023;-81
2020/12/20 06:37:44;;;;;;;9.25;2.78;;;8.80;99.90;;;;;;5062688;28;20476;-81
2020/12/20 06:40:11;;;;;;;13.02;3.40;;;8.80;99.90;;;;;;5055282;28;20503;-82
2020/12/20 06:42:40;;;;;;;13.52;3.75;;;8.70;99.90;;;;;;5055393;28;20028;-82
2020/12/20 06:45:17;;;;;;;9.93;3.15;;;8.70;99.90;;;;;;5063952;28;20118;-81
2020/12/20 06:47:59;;;;;;;12.10;2.95;;;8.70;99.90;;;;;;5063637;28;20081;-81
2020/12/20 06:50:46;;;;;;;5.45;2.75;;;8.70;99.90;;;;;;5064642;28;20044;-82
2020/12/20 06:53:16;;;;;;;14.02;2.88;;;8.70;99.90;;;;;;5076174;28;20099;-82
2020/12/20 06:55:42;;;;;;;9.73;3.58;;;8.70;99.90;;;;;;5073450;28;20024;-81
2020/12/20 06:58:13;;;;;;;15.05;2.95;;;8.60;99.90;;;;;;5073416;28;20017;-81
2020/12/20 07:00:46;;;;;;;7.80;2.60;;;8.60;99.90;;;;;;5054845;28;20029;-81
2020/12/20 07:03:20;;;;;;;9.77;2.85;;;8.70;99.90;;;;;;5073075;28;20558;-81
2020/12/20 07:05:48;;;;;;;8.43;2.47;;;8.70;99.90;;;;;;5055303;28;20036;-81
2020/12/20 07:08:22;;;;;;;9.60;2.53;;;8.70;99.90;;;;;;5055564;28;20028;-82
2020/12/20 07:10:52;;;;;;;9.43;2.63;;;8.70;99.90;;;;;;5073044;28;20032;-81
2020/12/20 07:13:31;;;;;;;9.73;2.83;;;8.70;99.90;;;;;;5055456;28;20063;-81
2020/12/20 07:16:23;;;;;;;10.90;2.67;;;8.60;99.90;;;;;;5055083;28;20039;-81
2020/12/20 07:18:59;;;;;;;9.90;3.03;;;8.60;99.90;;;;;;5072361;28;20271;-82
2020/12/20 07:21:28;;;;;;;16.67;3.22;;;8.60;99.90;;;;;;5055101;28;20016;-81
2020/12/20 07:24:16;;;;;;;8.38;2.70;;;8.60;99.90;;;;;;5073140;28;20028;-81
2020/12/20 07:26:41;;;;;;;7.40;2.40;;;8.60;99.90;;;;;;5075461;28;20047;-82
2020/12/20 07:29:08;;;;;;;11.27;3.05;;;8.60;99.90;;;;;;5064522;28;20028;-82
2020/12/20 07:31:34;;;;;;;11.57;2.97;;;8.60;99.90;;;;;;5063577;28;20016;-81
2020/12/20 07:34:00;;;;;;;8.70;2.47;;;8.60;99.90;;;;;;5065860;28;20174;-81
2020/12/20 07:36:26;;;;;;;6.50;2.45;;;8.60;99.90;;;;;;5068617;28;20484;-82
2020/12/20 07:38:52;;;;;;;14.85;3.60;;;8.50;99.90;;;;;;5093373;28;20024;-82
2020/12/20 07:41:19;;;;;;;11.77;3.10;;;8.50;99.90;;;;;;5073688;28;20160;-81
2020/12/20 07:43:48;;;;;;;7.22;2.40;;;8.50;99.90;;;;;;5060000;28;20036;-81
2020/12/20 07:46:15;;;;;;;9.25;2.97;;;8.50;99.90;;;;;;5073112;28;20106;-81
2020/12/20 07:48:40;;;;;;;13.38;2.83;;;8.50;99.90;;;;;;5055089;28;20028;-81
2020/12/20 07:51:20;;;;;;;7.45;2.55;;;8.40;99.90;;;;;;5074964;28;20027;-81
2020/12/20 07:53:50;;;;;;;10.55;2.83;;;8.40;99.90;;;;;;5061389;28;20035;-81
2020/12/20 07:56:27;;;;;;;10.80;2.65;;;8.40;99.90;;;;;;5068307;28;20031;-81
2020/12/20 07:59:12;;;;;;;11.57;2.55;;;8.40;99.90;;;;;;5086588;28;20043;-81
2020/12/20 08:01:40;;;;;;;12.73;2.80;;;8.40;99.90;;;;;;5062486;28;20032;-81
2020/12/20 08:04:08;;;;;;;11.90;3.10;;;8.40;99.90;;;;;;5073800;28;20094;-81
2020/12/20 08:06:38;;;;;;;14.90;2.88;;;8.40;99.90;;;;;;5061376;28;20020;-81
2020/12/20 08:09:10;;;;;;;11.60;3.15;;;8.40;99.90;;;;;;5074396;28;20024;-81
2020/12/20 08:11:37;;;;;;;11.38;2.70;;;8.40;99.90;;;;;;5078843;28;20379;-81
2020/12/20 08:14:14;;;;;;;14.27;2.92;;;8.40;99.90;;;;;;5092404;28;20028;-81
2020/12/20 08:16:42;;;;;;;9.93;2.80;;;8.40;99.90;;;;;;5078024;28;20492;-81
2020/12/20 08:19:15;;;;;;;12.30;2.88;;;8.50;99.90;;;;;;5092547;28;20032;-81
2020/12/20 08:21:57;;;;;;;4.80;2.45;;;8.50;99.90;;;;;;5069277;28;20036;-81
2020/12/20 08:24:27;;;;;;;13.57;2.97;;;8.50;99.90;;;;;;5054155;28;20317;-81
2020/12/20 08:26:52;;;;;;;;;;;8.50;99.90;;;;;;5054482;28;20028;-81
2020/12/20 08:29:18;;;;;;;9.13;2.53;;;8.50;99.90;;;;;;5071633;28;19908;-81
2020/12/20 08:31:45;;;;;;;7.90;2.85;;;8.50;99.90;;;;;;5054058;28;20108;-81
2020/12/20 08:34:22;;;;;;;9.60;3.10;;;8.50;99.90;;;;;;5053850;28;20021;-81
2020/12/20 08:36:53;;;;;;;9.32;2.45;;;8.60;99.90;;;;;;5069484;28;20021;-80
2020/12/20 08:39:23;;;;;;;10.98;2.92;;;8.60;99.90;;;;;;5075090;28;20480;-81
2020/12/20 08:42:02;;;;;;;8.55;2.30;;;8.60;99.90;;;;;;5071657;28;20033;-81
2020/12/20 08:44:29;;;;;;;15.90;3.53;;;8.60;99.90;;;;;;5053558;28;20036;-81
2020/12/20 08:47:11;;;;;;;13.10;2.80;;;8.60;99.90;;;;;;5053684;28;20024;-82
2020/12/20 08:49:38;;;;;;;10.02;3.13;;;8.60;99.90;;;;;;5053214;28;20048;-81
2020/12/20 08:52:14;;;;;;;14.05;4.32;;;8.60;99.90;;;;;;5052733;28;20021;-81
2020/12/20 08:54:41;;;;;;;13.85;2.75;;;8.70;99.90;;;;;;5071983;28;20098;-81
2020/12/20 08:57:10;;;;;;;13.75;2.35;;;8.70;99.90;;;;;;5059272;28;20016;-81
2020/12/20 08:59:43;;;;;;;13.23;3.05;;;8.70;99.90;;;;;;5073222;28;20027;-80
2020/12/20 09:02:23;;;;;;;11.45;2.92;;;8.80;99.90;;;;;;5081741;28;20024;-81
2020/12/20 09:05:06;;;;;;;11.40;3.13;;;8.80;99.90;;;;;;5057419;28;20059;-80
2020/12/20 09:07:38;;;;;;;16.45;4.10;;;8.90;99.90;;;;;;5075123;28;20029;-80
2020/12/20 09:10:09;;;;;;;9.65;2.53;;;8.90;99.90;;;;;;5075168;28;20035;-81
2020/12/20 09:12:36;;;;;;;13.20;2.90;;;8.90;99.90;;;;;;5056694;28;20074;-81
2020/12/20 09:15:05;;;;;;;11.55;2.90;;;9.00;99.90;;;;;;5055439;28;20024;-81
2020/12/20 09:17:36;;;;;;;14.75;2.65;;;9.00;99.90;;;;;;5074085;28;20069;-81
2020/12/20 09:20:04;;;;;;;9.95;2.63;;;9.10;99.90;;;;;;5056637;28;20056;-81
2020/12/20 09:22:42;;;;;;;13.73;3.00;;;9.10;99.90;;;;;;5078933;28;20098;-81
2020/12/20 09:25:09;;;;;;;14.43;3.55;;;9.20;99.90;;;;;;5057482;28;20396;-81
2020/12/20 09:27:35;;;;;;;11.25;3.25;;;9.20;99.90;;;;;;5074414;28;20028;-81
2020/12/20 09:30:02;;;;;;;20.95;2.90;;;9.20;99.90;;;;;;5056391;28;20074;-81
2020/12/20 09:32:35;;;;;;;10.07;2.72;;;9.30;99.90;;;;;;5076861;28;20073;-81
2020/12/20 09:35:10;;;;;;;14.38;3.50;;;9.30;99.90;;;;;;5078498;28;20035;-81
2020/12/20 09:37:41;;;;;;;10.00;3.13;;;9.30;99.90;;;;;;5062492;28;20085;-81
2020/12/20 09:40:08;;;;;;;18.00;3.33;;;9.30;99.90;;;;;;5074256;28;20032;-81
2020/12/20 09:42:42;;;;;;;13.55;2.80;;;9.30;99.90;;;;;;5073856;28;20036;-81
2020/12/20 09:45:09;;;;;;;12.55;3.17;;;9.40;99.90;;;;;;5061057;28;20388;-81
2020/12/20 09:47:43;;;;;;;13.45;3.47;;;9.40;99.90;;;;;;5074073;28;20035;-81
2020/12/20 09:50:09;;;;;;;16.15;3.20;;;9.40;99.90;;;;;;5064597;28;20045;-81
2020/12/20 09:52:36;;;;;;;8.80;2.58;;;9.40;99.90;;;;;;5079188;28;20043;-80
2020/12/20 09:55:03;;;;;;;18.77;3.83;;;9.40;99.90;;;;;;5074383;28;20016;-81
2020/12/20 09:57:29;;;;;;;11.88;3.42;;;9.40;99.90;;;;;;5055169;28;20032;-81
2020/12/20 09:59:55;;;;;;;13.07;2.97;;;9.40;99.90;;;;;;5074000;28;20472;-81
2020/12/20 10:02:20;;;;;;;12.50;3.08;;;9.50;99.90;;;;;;5073609;28;20029;-81
2020/12/20 10:04:46;;;;;;;13.02;3.25;;;9.50;99.90;;;;;;5055550;28;20028;-81
2020/12/20 10:07:11;;;;;;;15.13;2.78;;;9.50;99.90;;;;;;5073187;28;20099;-80
2020/12/20 10:09:37;;;;;;;14.32;3.40;;;9.50;99.90;;;;;;5073506;28;20082;-81
2020/12/20 10:12:03;;;;;;;11.63;2.83;;;9.50;99.90;;;;;;5073319;28;20533;-81
2020/12/20 10:14:28;;;;;;;16.50;3.70;;;9.50;99.90;;;;;;5055313;28;20116;-81
2020/12/20 10:16:54;;;;;;;13.98;3.10;;;9.60;99.90;;;;;;5055259;28;20498;-82
2020/12/20 10:19:20;;;;;;;15.02;2.95;;;9.50;99.90;;;;;;5057887;28;20476;-81
2020/12/20 10:21:50;;;;;;;12.90;3.20;;;9.60;99.90;;;;;;5055417;28;20031;-81
2020/12/20 10:24:16;;;;;;;13.55;2.90;;;9.60;99.90;;;;;;5073267;28;20043;-81
2020/12/20 10:26:46;;;;;;;5.47;2.38;;;9.60;99.80;;;;;;5054581;28;20020;-81
2020/12/20 10:29:14;;;;;;;16.52;2.63;;;9.60;99.80;;;;;;5072921;28;20095;-81
2020/12/20 10:31:44;;;;;;;12.13;3.03;;;9.60;99.70;;;;;;5073048;28;20067;-81
2020/12/20 10:34:10;;;;;;;18.27;3.53;;;9.60;99.60;;;;;;5054907;28;20013;-81
2020/12/20 10:36:37;;;;;;;18.85;3.17;;;9.60;99.60;;;;;;5055694;28;20051;-81
2020/12/20 10:39:05;;;;;;;13.98;3.33;;;9.60;99.50;;;;;;5072577;28;20027;-81
2020/12/20 10:41:40;;;;;;;12.75;3.60;;;9.60;99.60;;;;;;5072574;28;20024;-81
2020/12/20 10:44:06;;;;;;;11.32;3.33;;;9.70;99.40;;;;;;5072819;28;20442;-81
2020/12/20 10:46:35;;;;;;;19.00;4.15;;;9.60;99.40;;;;;;5054600;28;20063;-81
2020/12/20 10:49:03;;;;;;;15.98;3.72;;;9.60;99.40;;;;;;5054142;28;20074;-81
2020/12/20 10:51:28;;;;;;;13.32;3.05;;;9.60;99.30;;;;;;5068658;28;20487;-81
2020/12/20 10:53:54;;;;;;;15.10;3.08;;;9.70;99.40;;;;;;5054715;28;20021;-81
2020/12/20 10:56:20;;;;;;;21.20;4.07;;;9.80;99.30;;;;;;5072043;28;20055;-81
2020/12/20 10:58:47;;;;;;;16.60;3.60;;;9.80;99.10;;;;;;5057689;28;20032;-81
2020/12/20 11:01:18;;;;;;;13.68;3.33;;;9.80;99.00;;;;;;5085245;28;20012;-81
2020/12/20 11:03:45;;;;;;;14.07;3.65;;;9.90;98.90;;;;;;5054471;28;20016;-81
2020/12/20 11:06:16;;;;;;;14.00;3.17;;;10.20;98.90;;;;;;5054342;28;20101;-81
2020/12/20 11:08:42;;;;;;;15.52;3.90;;;10.40;98.20;;;;;;5054213;28;20022;-81
2020/12/20 11:11:08;;;;;;;20.08;3.70;;;10.60;97.70;;;;;;5071991;28;20380;-81
2020/12/20 11:13:33;;;;;;;9.48;2.95;;;10.60;97.20;;;;;;5072190;28;20019;-81
2020/12/20 11:15:59;;;;;;;17.13;4.85;;;10.70;97.50;;;;;;5072189;28;20032;-81
2020/12/20 11:18:24;;;;;;;11.73;2.67;;;10.80;97.00;;;;;;5053963;28;20024;-81
2020/12/20 11:20:50;;;;;;;17.83;3.97;;;10.90;96.70;;;;;;5053940;28;20025;-81
2020/12/20 11:23:15;;;;;;;21.27;4.28;;;10.90;96.50;;;;;;5053996;28;20021;-81
2020/12/20 11:25:41;;;;;;;13.93;3.88;;;10.90;96.10;;;;;;5071623;28;20020;-81
2020/12/20 11:28:06;;;;;;;11.35;3.58;;;10.90;96.30;;;;;;5071912;28;20108;-81
2020/12/20 11:30:32;;;;;;;17.90;3.67;;;11.00;96.50;;;;;;5072007;28;20031;-81
2020/12/20 11:32:57;;;;;;;17.40;4.50;;;11.10;96.10;;;;;;5054213;28;20043;-81
2020/12/20 11:35:23;;;;;;;10.32;3.65;;;11.10;95.60;;;;;;5072489;28;20020;-81
2020/12/20 11:37:48;;;;;;;10.43;3.13;;;11.10;95.60;;;;;;5054016;28;20451;-81
2020/12/20 11:40:14;;;;;;;11.90;3.65;;;11.20;95.60;;;;;;5071985;28;20103;-81
2020/12/20 11:42:39;;;;;;;18.77;4.50;;;11.30;95.30;;;;;;5062331;28;20028;-82
2020/12/20 11:45:05;;;;;;;15.57;4.03;;;11.20;94.90;;;;;;5055346;28;20052;-82
2020/12/20 11:47:30;;;;;;;19.02;4.05;;;11.20;95.00;;;;;;5079944;28;20415;-81
2020/12/20 11:49:56;;;;;;;14.18;3.63;;;11.30;95.10;;;;;;5057524;28;20051;-81
2020/12/20 11:52:26;;;;;;;14.35;3.47;;;11.30;94.90;;;;;;5081686;28;20021;-82
2020/12/20 11:54:51;;;;;;;23.42;6.85;;;11.40;95.30;;;;;;5053578;28;20012;-81
2020/12/20 11:57:17;;;;;;;16.77;3.83;;;11.50;95.00;;;;;;5053814;28;20027;-81
2020/12/20 11:59:42;;;;;;;15.43;3.72;;;11.60;94.40;;;;;;5053682;28;20483;-81
2020/12/20 12:02:08;;;;;;;13.60;4.65;;;11.50;94.50;;;;;;5071891;28;20056;-81
2020/12/20 12:04:33;;;;;;;13.73;3.83;;;11.40;94.30;;;;;;5053738;28;20027;-81
2020/12/20 12:06:59;;;;;;;17.33;3.55;;;11.40;94.60;;;;;;5071303;28;20032;-81
2020/12/20 12:09:24;;;;;;;18.70;3.85;;;11.40;94.60;;;;;;5074474;28;20032;-81
2020/12/20 12:11:53;;;;;;;17.25;3.63;;;11.40;94.20;;;;;;5062904;28;20048;-81
2020/12/20 12:14:18;;;;;;;21.13;4.90;;;11.30;94.30;;;;;;5053630;28;20025;-81
2020/12/20 12:16:44;;;;;;;16.65;3.72;;;11.20;94.10;;;;;;5053724;28;20476;-81
2020/12/20 12:19:09;;;;;;;15.43;4.32;;;11.20;94.10;;;;;;5053374;28;20132;-81
2020/12/20 12:21:35;;;;;;;16.95;3.83;;;11.10;94.30;;;;;;5071257;28;20506;-81
2020/12/20 12:24:00;;;;;;;16.60;3.88;;;11.10;94.60;;;;;;5063966;28;20032;-82
2020/12/20 12:26:26;;;;;;;14.68;3.85;;;11.10;94.70;;;;;;5069512;28;20016;-81
2020/12/20 12:28:51;;;;;;;16.52;3.50;;;11.10;94.50;;;;;;5054869;28;20503;-81
2020/12/20 12:31:17;;;;;;;14.02;3.25;;;11.20;94.50;;;;;;5058121;28;20067;-81
2020/12/20 12:33:42;;;;;;;18.13;3.50;;;11.20;94.50;;;;;;5057768;28;20021;-81
2020/12/20 12:36:10;;;;;;;14.38;3.60;;;11.10;94.20;;;;;;5062925;28;20100;-81
2020/12/20 12:38:35;;;;;;;18.33;3.50;;;11.10;94.50;;;;;;5075589;28;20040;-81
2020/12/20 12:41:01;;;;;;;15.07;3.22;;;11.10;94.50;;;;;;5057784;28;20067;-81
2020/12/20 12:43:27;;;;;;;17.48;4.10;;;11.00;94.60;;;;;;5057763;28;20074;-81
2020/12/20 12:45:52;;;;;;;14.52;3.28;;;11.00;94.60;;;;;;5075654;28;20029;-81
2020/12/20 12:48:17;;;;;;;24.13;4.38;;;11.00;94.50;;;;;;5075741;28;20040;-81
2020/12/20 12:50:43;;;;;;;15.60;3.50;;;11.00;94.40;;;;;;5057105;28;20036;-82
2020/12/20 12:53:08;;;;;;;16.15;3.25;;;11.00;94.70;;;;;;5057528;28;20487;-81
2020/12/20 12:55:34;;;;;;;18.48;2.97;;;10.90;94.60;;;;;;5057645;28;20025;-81